sensor_id;sensor_type;location;lat;lon;timestamp;pressure;altitude;pressure_sealevel;temperature;humidity
63708;BME280;67643;-34.198;22.084;2023-04-22T02:57:21;99503.28;;;13.66;55.85
63708;BME280;67643;-34.198;22.084;2023-04-22T02:59:50;99489.62;;;14.71;51.07
63708;BME280;67643;-34.198;22.084;2023-04-22T03:02:18;99469.93;;;15.41;48.28
63708;BME280;67643;-34.198;22.084;2023-04-22T03:04:47;99472.27;;;15.21;47.64
63708;BME280;67643;-34.198;22.084;2023-04-22T03:07:15;99494.27;;;15.73;46.43
63708;BME280;67643;-34.198;22.084;2023-04-22T03:09:44;99493.90;;;15.19;45.99
63708;BME280;67643;-34.198;22.084;2023-04-22T03:12:12;99490.39;;;15.82;45.76
63708;BME280;67643;-34.198;22.084;2023-04-22T03:14:40;99508.11;;;15.82;45.42
63708;BME280;67643;-34.198;22.084;2023-04-22T03:17:10;99523.72;;;15.99;45.05
63708;BME280;67643;-34.198;22.084;2023-04-22T03:19:38;99539.82;;;15.74;45.65
63708;BME280;67643;-34.198;22.084;2023-04-22T03:22:07;99554.05;;;15.70;45.83
63708;BME280;67643;-34.198;22.084;2023-04-22T03:24:35;99562.60;;;15.69;45.77
63708;BME280;67643;-34.198;22.084;2023-04-22T03:27:04;99572.87;;;15.95;44.90
63708;BME280;67643;-34.198;22.084;2023-04-22T03:29:33;99592.25;;;15.45;45.47
63708;BME280;67643;-34.198;22.084;2023-04-22T03:32:02;99595.28;;;15.60;45.73
63708;BME280;67643;-34.198;22.084;2023-04-22T03:34:30;99593.98;;;16.21;45.65
63708;BME280;67643;-34.198;22.084;2023-04-22T03:36:59;99585.67;;;16.34;46.14
63708;BME280;67643;-34.198;22.084;2023-04-22T03:39:27;99581.01;;;16.61;45.39
63708;BME280;67643;-34.198;22.084;2023-04-22T03:41:56;99562.07;;;17.19;45.10
63708;BME280;67643;-34.198;22.084;2023-04-22T03:44:24;99566.13;;;16.74;45.27
63708;BME280;67643;-34.198;22.084;2023-04-22T03:46:53;99575.70;;;17.25;43.75
63708;BME280;67643;-34.198;22.084;2023-04-22T03:49:21;99591.10;;;16.77;44.21
63708;BME280;67643;-34.198;22.084;2023-04-22T03:51:49;99593.66;;;16.85;43.95
63708;BME280;67643;-34.198;22.084;2023-04-22T03:54:18;99583.84;;;16.56;44.46
63708;BME280;67643;-34.198;22.084;2023-04-22T03:56:47;99583.98;;;16.68;43.56
63708;BME280;67643;-34.198;22.084;2023-04-22T03:59:17;99587.99;;;16.85;44.06
63708;BME280;67643;-34.198;22.084;2023-04-22T04:01:46;99577.08;;;16.89;44.17
63708;BME280;67643;-34.198;22.084;2023-04-22T04:04:15;99567.24;;;16.82;44.61
63708;BME280;67643;-34.198;22.084;2023-04-22T04:06:44;99570.48;;;17.10;44.33
63708;BME280;67643;-34.198;22.084;2023-04-22T04:09:12;99572.36;;;16.64;45.09
63708;BME280;67643;-34.198;22.084;2023-04-22T04:11:40;99569.03;;;16.50;45.47
63708;BME280;67643;-34.198;22.084;2023-04-22T04:14:09;99570.45;;;16.59;45.36
63708;BME280;67643;-34.198;22.084;2023-04-22T04:16:37;99569.87;;;17.27;44.15
63708;BME280;67643;-34.198;22.084;2023-04-22T04:19:06;99585.57;;;17.05;44.51
63708;BME280;67643;-34.198;22.084;2023-04-22T04:21:35;99592.43;;;16.78;44.26
63708;BME280;67643;-34.198;22.084;2023-04-22T04:24:04;99600.92;;;17.42;45.31
63708;BME280;67643;-34.198;22.084;2023-04-22T04:26:33;99602.30;;;18.40;44.50
63708;BME280;67643;-34.198;22.084;2023-04-22T04:29:01;99610.69;;;18.11;44.88
63708;BME280;67643;-34.198;22.084;2023-04-22T04:31:30;99612.08;;;18.20;44.47
63708;BME280;67643;-34.198;22.084;2023-04-22T04:33:58;99622.36;;;17.96;43.97
63708;BME280;67643;-34.198;22.084;2023-04-22T04:36:26;99621.61;;;18.52;44.17
63708;BME280;67643;-34.198;22.084;2023-04-22T04:38:55;99635.05;;;18.85;43.77
63708;BME280;67643;-34.198;22.084;2023-04-22T04:41:24;99647.64;;;18.75;44.29
63708;BME280;67643;-34.198;22.084;2023-04-22T04:43:52;99631.85;;;18.96;44.05
63708;BME280;67643;-34.198;22.084;2023-04-22T04:46:21;99617.84;;;19.02;43.96
63708;BME280;67643;-34.198;22.084;2023-04-22T04:48:49;99618.83;;;18.77;43.98
63708;BME280;67643;-34.198;22.084;2023-04-22T04:51:18;99612.14;;;19.16;43.83
63708;BME280;67643;-34.198;22.084;2023-04-22T04:53:46;99607.02;;;18.38;43.55
63708;BME280;67643;-34.198;22.084;2023-04-22T04:56:15;99598.67;;;18.13;43.15
63708;BME280;67643;-34.198;22.084;2023-04-22T04:58:43;99588.50;;;18.55;43.43
63708;BME280;67643;-34.198;22.084;2023-04-22T05:01:12;99579.91;;;17.98;43.72
63708;BME280;67643;-34.198;22.084;2023-04-22T05:03:40;99578.79;;;17.68;42.28
63708;BME280;67643;-34.198;22.084;2023-04-22T05:06:09;99581.07;;;17.68;42.43
63708;BME280;67643;-34.198;22.084;2023-04-22T05:08:37;99574.94;;;17.13;44.22
63708;BME280;67643;-34.198;22.084;2023-04-22T05:11:06;99586.60;;;17.25;44.55
63708;BME280;67643;-34.198;22.084;2023-04-22T05:13:34;99585.82;;;17.28;44.53
63708;BME280;67643;-34.198;22.084;2023-04-22T05:16:03;99586.17;;;17.72;45.18
63708;BME280;67643;-34.198;22.084;2023-04-22T05:18:31;99581.90;;;18.19;44.99
63708;BME280;67643;-34.198;22.084;2023-04-22T05:21:00;99578.22;;;18.42;44.46
63708;BME280;67643;-34.198;22.084;2023-04-22T05:23:28;99565.56;;;17.79;44.29
63708;BME280;67643;-34.198;22.084;2023-04-22T05:25:57;99561.68;;;17.28;44.68
63708;BME280;67643;-34.198;22.084;2023-04-22T05:28:25;99558.32;;;17.71;44.28
63708;BME280;67643;-34.198;22.084;2023-04-22T05:30:54;99553.35;;;17.29;44.40
63708;BME280;67643;-34.198;22.084;2023-04-22T05:33:22;99557.75;;;17.40;44.06
63708;BME280;67643;-34.198;22.084;2023-04-22T05:35:51;99550.28;;;16.74;45.60
63708;BME280;67643;-34.198;22.084;2023-04-22T05:38:19;99541.27;;;16.73;45.54
63708;BME280;67643;-34.198;22.084;2023-04-22T05:40:49;99543.19;;;17.09;45.65
63708;BME280;67643;-34.198;22.084;2023-04-22T05:43:17;99539.40;;;17.47;46.00
63708;BME280;67643;-34.198;22.084;2023-04-22T05:45:46;99534.53;;;17.54;46.15
63708;BME280;67643;-34.198;22.084;2023-04-22T05:48:15;99528.44;;;17.62;44.90
63708;BME280;67643;-34.198;22.084;2023-04-22T05:50:43;99524.39;;;17.82;45.31
63708;BME280;67643;-34.198;22.084;2023-04-22T05:53:12;99530.21;;;17.72;44.71
63708;BME280;67643;-34.198;22.084;2023-04-22T05:55:40;99540.36;;;17.12;44.78
63708;BME280;67643;-34.198;22.084;2023-04-22T05:58:08;99552.29;;;17.37;44.53
63708;BME280;67643;-34.198;22.084;2023-04-22T06:00:37;99548.28;;;17.47;44.06
63708;BME280;67643;-34.198;22.084;2023-04-22T06:03:06;99538.96;;;17.74;44.74
63708;BME280;67643;-34.198;22.084;2023-04-22T06:05:35;99540.41;;;17.34;44.43
63708;BME280;67643;-34.198;22.084;2023-04-22T06:08:03;99537.24;;;17.53;44.21
63708;BME280;67643;-34.198;22.084;2023-04-22T06:10:32;99546.37;;;17.50;45.02
63708;BME280;67643;-34.198;22.084;2023-04-22T06:13:01;99548.10;;;17.58;44.24
63708;BME280;67643;-34.198;22.084;2023-04-22T06:15:29;99547.54;;;17.26;44.68
63708;BME280;67643;-34.198;22.084;2023-04-22T06:17:57;99544.60;;;17.40;45.38
63708;BME280;67643;-34.198;22.084;2023-04-22T06:20:26;99536.90;;;17.07;44.86
63708;BME280;67643;-34.198;22.084;2023-04-22T06:22:55;99541.60;;;17.54;43.99
63708;BME280;67643;-34.198;22.084;2023-04-22T06:25:23;99545.37;;;17.79;43.52
63708;BME280;67643;-34.198;22.084;2023-04-22T06:27:52;99542.24;;;17.95;43.36
63708;BME280;67643;-34.198;22.084;2023-04-22T06:30:20;99557.93;;;17.24;42.89
63708;BME280;67643;-34.198;22.084;2023-04-22T06:32:50;99561.78;;;17.46;42.75
63708;BME280;67643;-34.198;22.084;2023-04-22T06:35:19;99560.55;;;17.32;42.46
63708;BME280;67643;-34.198;22.084;2023-04-22T06:37:48;99567.79;;;17.43;41.62
63708;BME280;67643;-34.198;22.084;2023-04-22T06:40:16;99566.41;;;17.59;41.55
63708;BME280;67643;-34.198;22.084;2023-04-22T06:42:44;99561.82;;;17.57;41.59
63708;BME280;67643;-34.198;22.084;2023-04-22T06:45:13;99561.05;;;17.95;40.31
63708;BME280;67643;-34.198;22.084;2023-04-22T06:47:41;99559.73;;;17.72;41.62
63708;BME280;67643;-34.198;22.084;2023-04-22T06:50:10;99553.96;;;18.05;40.30
63708;BME280;67643;-34.198;22.084;2023-04-22T06:52:39;99561.46;;;17.69;39.93
63708;BME280;67643;-34.198;22.084;2023-04-22T06:55:08;99567.66;;;18.40;39.38
63708;BME280;67643;-34.198;22.084;2023-04-22T06:57:37;99579.41;;;18.09;39.41
63708;BME280;67643;-34.198;22.084;2023-04-22T07:00:07;99584.86;;;17.85;40.33
63708;BME280;67643;-34.198;22.084;2023-04-22T07:02:35;99586.27;;;18.01;40.26
63708;BME280;67643;-34.198;22.084;2023-04-22T07:05:05;99584.73;;;18.06;39.77
63708;BME280;67643;-34.198;22.084;2023-04-22T07:07:34;99601.88;;;17.91;40.77
63708;BME280;67643;-34.198;22.084;2023-04-22T07:10:02;99607.69;;;17.99;39.98
63708;BME280;67643;-34.198;22.084;2023-04-22T07:12:30;99619.86;;;17.89;40.11
63708;BME280;67643;-34.198;22.084;2023-04-22T07:14:59;99623.19;;;17.95;40.41
63708;BME280;67643;-34.198;22.084;2023-04-22T07:17:27;99626.57;;;17.64;40.98
63708;BME280;67643;-34.198;22.084;2023-04-22T07:19:56;99622.25;;;17.75;41.22
63708;BME280;67643;-34.198;22.084;2023-04-22T07:22:24;99628.32;;;17.81;40.97
63708;BME280;67643;-34.198;22.084;2023-04-22T07:24:52;99622.10;;;18.25;40.80
63708;BME280;67643;-34.198;22.084;2023-04-22T07:27:21;99632.77;;;17.76;40.66
63708;BME280;67643;-34.198;22.084;2023-04-22T07:29:50;99638.43;;;17.63;41.41
63708;BME280;67643;-34.198;22.084;2023-04-22T07:32:19;99631.39;;;17.68;41.26
63708;BME280;67643;-34.198;22.084;2023-04-22T07:34:47;99640.38;;;17.88;41.57
63708;BME280;67643;-34.198;22.084;2023-04-22T07:37:15;99643.64;;;17.85;41.90
63708;BME280;67643;-34.198;22.084;2023-04-22T07:39:44;99637.12;;;17.92;42.19
63708;BME280;67643;-34.198;22.084;2023-04-22T07:42:12;99639.07;;;17.89;43.37
63708;BME280;67643;-34.198;22.084;2023-04-22T07:44:40;99636.10;;;18.43;43.47
63708;BME280;67643;-34.198;22.084;2023-04-22T07:47:09;99631.35;;;18.34;42.95
63708;BME280;67643;-34.198;22.084;2023-04-22T07:49:37;99632.51;;;17.96;43.48
63708;BME280;67643;-34.198;22.084;2023-04-22T07:52:06;99634.84;;;18.26;43.21
63708;BME280;67643;-34.198;22.084;2023-04-22T07:54:34;99636.70;;;18.33;42.94
63708;BME280;67643;-34.198;22.084;2023-04-22T07:57:03;99651.48;;;18.46;43.41
63708;BME280;67643;-34.198;22.084;2023-04-22T07:59:31;99655.64;;;18.38;43.58
63708;BME280;67643;-34.198;22.084;2023-04-22T10:09:22;99660.83;;;14.94;55.96
63708;BME280;67643;-34.198;22.084;2023-04-22T10:11:53;99648.62;;;16.30;50.65
63708;BME280;67643;-34.198;22.084;2023-04-22T10:14:22;99651.68;;;16.68;48.05
63708;BME280;67643;-34.198;22.084;2023-04-22T10:16:55;99661.29;;;17.37;46.53
63708;BME280;67643;-34.198;22.084;2023-04-22T10:19:25;99661.11;;;17.81;44.52
63708;BME280;67643;-34.198;22.084;2023-04-22T10:21:56;99649.11;;;17.97;44.77
63708;BME280;67643;-34.198;22.084;2023-04-22T10:24:27;99639.48;;;18.42;44.01
63708;BME280;67643;-34.198;22.084;2023-04-22T10:26:58;99641.43;;;18.41;44.11
63708;BME280;67643;-34.198;22.084;2023-04-22T10:29:34;99632.81;;;18.01;42.93
63708;BME280;67643;-34.198;22.084;2023-04-22T10:32:05;99628.76;;;18.29;42.91
63708;BME280;67643;-34.198;22.084;2023-04-22T10:34:36;99623.40;;;18.09;42.82
63708;BME280;67643;-34.198;22.084;2023-04-22T10:37:07;99613.85;;;18.29;42.87
63708;BME280;67643;-34.198;22.084;2023-04-22T10:39:36;99602.11;;;18.35;41.89
63708;BME280;67643;-34.198;22.084;2023-04-22T10:42:07;99607.07;;;18.39;42.31
63708;BME280;67643;-34.198;22.084;2023-04-22T10:44:54;99596.28;;;18.38;42.26
63708;BME280;67643;-34.198;22.084;2023-04-22T10:47:28;99589.86;;;18.21;42.66
63708;BME280;67643;-34.198;22.084;2023-04-22T10:50:11;99594.42;;;18.14;42.45
63708;BME280;67643;-34.198;22.084;2023-04-22T10:52:41;99596.65;;;18.61;42.02
63708;BME280;67643;-34.198;22.084;2023-04-22T10:55:09;99596.19;;;18.72;41.86
63708;BME280;67643;-34.198;22.084;2023-04-22T10:57:39;99595.49;;;18.77;41.85
63708;BME280;67643;-34.198;22.084;2023-04-22T11:00:42;99588.92;;;18.60;41.70
63708;BME280;67643;-34.198;22.084;2023-04-22T11:03:13;99590.74;;;18.33;41.95
63708;BME280;67643;-34.198;22.084;2023-04-22T11:05:42;99593.69;;;18.34;41.78
63708;BME280;67643;-34.198;22.084;2023-04-22T11:08:17;99592.67;;;18.41;41.93
63708;BME280;67643;-34.198;22.084;2023-04-22T11:10:48;99587.52;;;18.39;41.52
63708;BME280;67643;-34.198;22.084;2023-04-22T11:13:18;99577.23;;;18.83;41.16
63708;BME280;67643;-34.198;22.084;2023-04-22T11:15:48;99565.96;;;18.50;40.68
63708;BME280;67643;-34.198;22.084;2023-04-22T11:18:19;99566.83;;;18.73;40.48
63708;BME280;67643;-34.198;22.084;2023-04-22T11:20:49;99578.68;;;18.55;41.08
63708;BME280;67643;-34.198;22.084;2023-04-22T11:23:20;99576.73;;;18.40;40.31
63708;BME280;67643;-34.198;22.084;2023-04-22T11:25:54;99567.53;;;18.51;40.40
63708;BME280;67643;-34.198;22.084;2023-04-22T11:28:22;99563.58;;;18.69;41.36
63708;BME280;67643;-34.198;22.084;2023-04-22T11:30:51;99561.13;;;19.01;40.95
63708;BME280;67643;-34.198;22.084;2023-04-22T11:33:20;99562.33;;;18.81;39.76
63708;BME280;67643;-34.198;22.084;2023-04-22T11:35:49;99555.31;;;18.80;39.48
63708;BME280;67643;-34.198;22.084;2023-04-22T11:38:17;99553.89;;;18.85;39.26
63708;BME280;67643;-34.198;22.084;2023-04-22T11:40:46;99562.26;;;18.50;38.86
63708;BME280;67643;-34.198;22.084;2023-04-22T11:43:16;99551.37;;;18.59;38.25
63708;BME280;67643;-34.198;22.084;2023-04-22T11:45:45;99546.99;;;18.75;38.03
63708;BME280;67643;-34.198;22.084;2023-04-22T11:48:14;99558.81;;;18.53;39.15
63708;BME280;67643;-34.198;22.084;2023-04-22T11:50:43;99552.05;;;18.86;39.20
63708;BME280;67643;-34.198;22.084;2023-04-22T11:53:15;99550.29;;;18.46;38.93
63708;BME280;67643;-34.198;22.084;2023-04-22T11:55:48;99550.10;;;18.86;37.93
63708;BME280;67643;-34.198;22.084;2023-04-22T11:58:18;99545.10;;;18.94;38.89
63708;BME280;67643;-34.198;22.084;2023-04-22T12:00:48;99553.91;;;18.99;38.96
63708;BME280;67643;-34.198;22.084;2023-04-22T12:03:19;99557.99;;;18.64;38.45
63708;BME280;67643;-34.198;22.084;2023-04-22T12:05:52;99548.45;;;18.66;38.69
63708;BME280;67643;-34.198;22.084;2023-04-22T12:08:22;99530.32;;;19.05;38.93
63708;BME280;67643;-34.198;22.084;2023-04-22T12:10:54;99521.31;;;19.07;38.64
63708;BME280;67643;-34.198;22.084;2023-04-22T12:13:27;99527.69;;;18.77;38.95
63708;BME280;67643;-34.198;22.084;2023-04-22T12:15:58;99534.53;;;18.79;36.98
63708;BME280;67643;-34.198;22.084;2023-04-22T12:18:31;99532.14;;;18.75;38.05
63708;BME280;67643;-34.198;22.084;2023-04-22T12:21:00;99528.86;;;19.05;37.43
63708;BME280;67643;-34.198;22.084;2023-04-22T12:23:29;99530.87;;;18.49;38.20
63708;BME280;67643;-34.198;22.084;2023-04-22T12:25:57;99538.43;;;18.96;38.22
63708;BME280;67643;-34.198;22.084;2023-04-22T12:28:26;99534.33;;;18.84;38.04
63708;BME280;67643;-34.198;22.084;2023-04-22T12:30:54;99526.04;;;18.66;37.97
63708;BME280;67643;-34.198;22.084;2023-04-22T12:33:23;99522.15;;;18.82;38.49
63708;BME280;67643;-34.198;22.084;2023-04-22T12:35:51;99512.78;;;19.04;38.25
63708;BME280;67643;-34.198;22.084;2023-04-22T12:38:20;99504.10;;;18.94;37.51
63708;BME280;67643;-34.198;22.084;2023-04-22T12:40:48;99488.77;;;18.79;37.25
63708;BME280;67643;-34.198;22.084;2023-04-22T12:43:17;99474.54;;;18.60;38.14
63708;BME280;67643;-34.198;22.084;2023-04-22T12:45:46;99484.94;;;19.21;37.91
63708;BME280;67643;-34.198;22.084;2023-04-22T12:48:15;99472.02;;;18.85;38.71
63708;BME280;67643;-34.198;22.084;2023-04-22T12:50:43;99460.30;;;18.89;36.54
63708;BME280;67643;-34.198;22.084;2023-04-22T12:53:12;99468.51;;;18.98;36.14
63708;BME280;67643;-34.198;22.084;2023-04-22T12:55:40;99484.81;;;18.75;37.51
63708;BME280;67643;-34.198;22.084;2023-04-22T12:58:09;99483.26;;;18.74;38.65
63708;BME280;67643;-34.198;22.084;2023-04-22T13:00:38;99484.31;;;19.23;38.29
63708;BME280;67643;-34.198;22.084;2023-04-22T13:03:12;99478.61;;;19.17;37.79
63708;BME280;67643;-34.198;22.084;2023-04-22T13:05:40;99470.68;;;19.05;37.98
63708;BME280;67643;-34.198;22.084;2023-04-22T13:08:09;99470.00;;;18.90;38.13
63708;BME280;67643;-34.198;22.084;2023-04-22T13:10:38;99471.26;;;18.84;37.53
63708;BME280;67643;-34.198;22.084;2023-04-22T13:13:08;99465.41;;;19.19;37.93
63708;BME280;67643;-34.198;22.084;2023-04-22T13:15:36;99461.00;;;19.26;37.59
63708;BME280;67643;-34.198;22.084;2023-04-22T13:18:05;99471.14;;;18.88;37.08
63708;BME280;67643;-34.198;22.084;2023-04-22T13:20:34;99474.28;;;18.97;37.88
63708;BME280;67643;-34.198;22.084;2023-04-22T13:23:03;99460.47;;;19.17;37.57
63708;BME280;67643;-34.198;22.084;2023-04-22T13:25:31;99455.25;;;19.04;37.64
63708;BME280;67643;-34.198;22.084;2023-04-22T13:28:00;99451.31;;;18.83;36.27
63708;BME280;67643;-34.198;22.084;2023-04-22T13:30:28;99454.82;;;18.78;36.24
63708;BME280;67643;-34.198;22.084;2023-04-22T13:32:57;99455.04;;;19.04;35.51
63708;BME280;67643;-34.198;22.084;2023-04-22T13:35:25;99449.09;;;19.22;35.75
63708;BME280;67643;-34.198;22.084;2023-04-22T13:37:54;99449.77;;;19.58;35.99
63708;BME280;67643;-34.198;22.084;2023-04-22T13:40:22;99452.74;;;19.28;35.86
63708;BME280;67643;-34.198;22.084;2023-04-22T13:42:51;99460.93;;;19.35;35.27
63708;BME280;67643;-34.198;22.084;2023-04-22T13:45:19;99453.99;;;19.12;36.02
63708;BME280;67643;-34.198;22.084;2023-04-22T13:47:48;99458.72;;;18.82;36.31
63708;BME280;67643;-34.198;22.084;2023-04-22T13:50:17;99466.19;;;19.18;35.01
63708;BME280;67643;-34.198;22.084;2023-04-22T13:52:46;99455.58;;;19.19;35.89
63708;BME280;67643;-34.198;22.084;2023-04-22T13:55:15;99458.46;;;19.21;36.03
63708;BME280;67643;-34.198;22.084;2023-04-22T13:57:43;99451.30;;;19.01;36.07
63708;BME280;67643;-34.198;22.084;2023-04-22T14:00:12;99459.83;;;19.22;36.45
63708;BME280;67643;-34.198;22.084;2023-04-22T14:02:41;99456.11;;;19.20;36.23
63708;BME280;67643;-34.198;22.084;2023-04-22T14:05:10;99457.25;;;18.87;36.93
63708;BME280;67643;-34.198;22.084;2023-04-22T14:07:38;99451.68;;;19.32;36.56
63708;BME280;67643;-34.198;22.084;2023-04-22T14:10:12;99446.36;;;19.12;36.42
63708;BME280;67643;-34.198;22.084;2023-04-22T14:12:40;99451.09;;;19.11;36.19
63708;BME280;67643;-34.198;22.084;2023-04-22T14:15:09;99456.70;;;19.09;37.01
63708;BME280;67643;-34.198;22.084;2023-04-22T14:17:38;99459.07;;;19.18;36.69
63708;BME280;67643;-34.198;22.084;2023-04-22T14:20:08;99457.24;;;18.98;36.59
63708;BME280;67643;-34.198;22.084;2023-04-22T14:22:37;99451.49;;;19.25;36.76
63708;BME280;67643;-34.198;22.084;2023-04-22T14:25:06;99458.11;;;18.73;36.15
63708;BME280;67643;-34.198;22.084;2023-04-22T14:27:35;99472.31;;;18.90;36.60
63708;BME280;67643;-34.198;22.084;2023-04-22T14:30:04;99470.59;;;18.98;36.86
63708;BME280;67643;-34.198;22.084;2023-04-22T14:32:33;99461.40;;;19.06;37.48
63708;BME280;67643;-34.198;22.084;2023-04-22T14:35:01;99463.94;;;18.96;37.88
63708;BME280;67643;-34.198;22.084;2023-04-22T14:37:30;99460.86;;;18.97;37.79
63708;BME280;67643;-34.198;22.084;2023-04-22T14:39:58;99464.01;;;19.16;38.00
63708;BME280;67643;-34.198;22.084;2023-04-22T14:42:27;99466.66;;;19.07;37.35
63708;BME280;67643;-34.198;22.084;2023-04-22T14:44:56;99461.31;;;19.08;37.42
63708;BME280;67643;-34.198;22.084;2023-04-22T14:47:25;99451.80;;;18.72;36.02
63708;BME280;67643;-34.198;22.084;2023-04-22T14:49:53;99449.84;;;19.03;35.74
63708;BME280;67643;-34.198;22.084;2023-04-22T14:52:22;99453.98;;;19.41;36.85
63708;BME280;67643;-34.198;22.084;2023-04-22T14:54:50;99453.85;;;19.09;36.24
63708;BME280;67643;-34.198;22.084;2023-04-22T14:57:19;99447.19;;;18.92;36.40
63708;BME280;67643;-34.198;22.084;2023-04-22T14:59:48;99441.51;;;18.75;35.79
63708;BME280;67643;-34.198;22.084;2023-04-22T15:02:16;99430.62;;;19.09;35.00
63708;BME280;67643;-34.198;22.084;2023-04-22T15:04:44;99433.25;;;18.73;36.18
63708;BME280;67643;-34.198;22.084;2023-04-22T15:07:13;99429.32;;;19.11;35.93
63708;BME280;67643;-34.198;22.084;2023-04-22T15:09:42;99431.38;;;19.04;35.62
63708;BME280;67643;-34.198;22.084;2023-04-22T15:12:10;99440.90;;;18.84;35.45
63708;BME280;67643;-34.198;22.084;2023-04-22T15:14:39;99436.87;;;18.84;35.40
63708;BME280;67643;-34.198;22.084;2023-04-22T15:17:08;99437.11;;;19.17;35.46
63708;BME280;67643;-34.198;22.084;2023-04-22T15:19:37;99437.85;;;18.85;35.81
63708;BME280;67643;-34.198;22.084;2023-04-22T15:22:05;99449.64;;;18.88;36.96
63708;BME280;67643;-34.198;22.084;2023-04-22T15:24:34;99477.40;;;18.76;37.86
63708;BME280;67643;-34.198;22.084;2023-04-22T15:27:02;99495.41;;;18.74;38.14
63708;BME280;67643;-34.198;22.084;2023-04-22T15:29:31;99491.67;;;19.06;37.83
63708;BME280;67643;-34.198;22.084;2023-04-22T15:31:59;99476.86;;;19.18;37.72
63708;BME280;67643;-34.198;22.084;2023-04-22T15:34:28;99480.21;;;18.26;38.29
63708;BME280;67643;-34.198;22.084;2023-04-22T15:36:56;99496.11;;;18.81;37.88
63708;BME280;67643;-34.198;22.084;2023-04-22T15:39:25;99502.24;;;18.71;38.71
63708;BME280;67643;-34.198;22.084;2023-04-22T15:41:53;99498.27;;;18.61;39.38
63708;BME280;67643;-34.198;22.084;2023-04-22T15:44:22;99471.89;;;18.70;39.31
63708;BME280;67643;-34.198;22.084;2023-04-22T15:46:51;99480.80;;;18.87;40.02
63708;BME280;67643;-34.198;22.084;2023-04-22T15:49:19;99483.73;;;18.85;39.87
63708;BME280;67643;-34.198;22.084;2023-04-22T15:51:47;99490.73;;;18.87;39.84
63708;BME280;67643;-34.198;22.084;2023-04-22T15:54:16;99484.38;;;18.80;40.56
63708;BME280;67643;-34.198;22.084;2023-04-22T15:56:44;99490.09;;;18.81;41.04
63708;BME280;67643;-34.198;22.084;2023-04-22T15:59:13;99518.09;;;19.27;41.20
63708;BME280;67643;-34.198;22.084;2023-04-22T18:05:13;99553.94;;;14.67;55.28
63708;BME280;67643;-34.198;22.084;2023-04-22T18:07:41;99552.54;;;15.85;48.91
63708;BME280;67643;-34.198;22.084;2023-04-22T18:10:10;99552.05;;;16.90;45.84
63708;BME280;67643;-34.198;22.084;2023-04-22T18:12:39;99544.58;;;17.05;44.42
63708;BME280;67643;-34.198;22.084;2023-04-22T18:15:08;99555.18;;;17.52;43.20
63708;BME280;67643;-34.198;22.084;2023-04-22T18:17:37;99552.39;;;17.62;41.91
63708;BME280;67643;-34.198;22.084;2023-04-22T18:20:07;99544.44;;;17.68;41.47
63708;BME280;67643;-34.198;22.084;2023-04-22T18:22:36;99544.19;;;17.68;41.22
63708;BME280;67643;-34.198;22.084;2023-04-22T18:25:05;99551.47;;;17.77;41.17
63708;BME280;67643;-34.198;22.084;2023-04-22T18:27:33;99549.83;;;17.96;40.15
63708;BME280;67643;-34.198;22.084;2023-04-22T18:30:02;99547.39;;;17.72;40.56
63708;BME280;67643;-34.198;22.084;2023-04-22T18:32:30;99535.17;;;18.11;40.16
63708;BME280;67643;-34.198;22.084;2023-04-22T18:34:59;99523.03;;;18.11;40.31
63708;BME280;67643;-34.198;22.084;2023-04-22T18:37:27;99513.31;;;18.09;40.47
63708;BME280;67643;-34.198;22.084;2023-04-22T18:39:56;99517.44;;;17.98;40.63
63708;BME280;67643;-34.198;22.084;2023-04-22T18:42:24;99525.25;;;18.18;40.49
63708;BME280;67643;-34.198;22.084;2023-04-22T18:44:53;99516.60;;;17.91;41.04
63708;BME280;67643;-34.198;22.084;2023-04-22T18:47:21;99520.57;;;17.84;41.00
63708;BME280;67643;-34.198;22.084;2023-04-22T18:49:50;99529.30;;;17.73;41.33
63708;BME280;67643;-34.198;22.084;2023-04-22T18:52:18;99529.70;;;17.80;41.24
63708;BME280;67643;-34.198;22.084;2023-04-22T18:54:47;99523.56;;;17.72;41.38
63708;BME280;67643;-34.198;22.084;2023-04-22T18:57:15;99520.33;;;17.76;41.60
63708;BME280;67643;-34.198;22.084;2023-04-22T18:59:44;99527.42;;;17.40;42.15
63708;BME280;67643;-34.198;22.084;2023-04-22T19:02:13;99526.07;;;17.67;41.81
63708;BME280;67643;-34.198;22.084;2023-04-22T19:04:42;99530.57;;;17.72;41.92
63708;BME280;67643;-34.198;22.084;2023-04-22T19:07:11;99533.90;;;17.56;42.24
63708;BME280;67643;-34.198;22.084;2023-04-22T19:09:39;99537.31;;;17.83;42.17
63708;BME280;67643;-34.198;22.084;2023-04-22T19:12:08;99537.32;;;17.71;42.02
63708;BME280;67643;-34.198;22.084;2023-04-22T19:14:36;99533.62;;;17.74;42.04
63708;BME280;67643;-34.198;22.084;2023-04-22T19:17:05;99525.01;;;17.79;42.03
63708;BME280;67643;-34.198;22.084;2023-04-22T19:19:33;99520.81;;;17.40;42.05
63708;BME280;67643;-34.198;22.084;2023-04-22T19:22:02;99518.10;;;17.78;41.19
63708;BME280;67643;-34.198;22.084;2023-04-22T19:24:30;99519.38;;;17.89;41.39
63708;BME280;67643;-34.198;22.084;2023-04-22T19:27:00;99502.79;;;17.70;41.33
63708;BME280;67643;-34.198;22.084;2023-04-22T19:29:29;99493.57;;;17.40;41.56
63708;BME280;67643;-34.198;22.084;2023-04-22T19:31:57;99491.93;;;17.72;41.10
63708;BME280;67643;-34.198;22.084;2023-04-22T19:34:25;99493.41;;;17.57;41.41
63708;BME280;67643;-34.198;22.084;2023-04-22T19:36:54;99490.53;;;17.67;41.26
63708;BME280;67643;-34.198;22.084;2023-04-22T19:39:22;99493.51;;;17.82;41.10
63708;BME280;67643;-34.198;22.084;2023-04-22T19:41:51;99485.99;;;17.51;41.51
63708;BME280;67643;-34.198;22.084;2023-04-22T19:44:20;99484.41;;;17.75;41.43
63708;BME280;67643;-34.198;22.084;2023-04-22T19:46:48;99496.12;;;17.56;41.16
63708;BME280;67643;-34.198;22.084;2023-04-22T19:49:17;99491.21;;;17.75;40.87
63708;BME280;67643;-34.198;22.084;2023-04-22T19:51:46;99486.66;;;17.69;40.89
63708;BME280;67643;-34.198;22.084;2023-04-22T19:54:15;99488.26;;;17.83;40.59
63708;BME280;67643;-34.198;22.084;2023-04-22T19:56:44;99495.01;;;17.80;40.44